createdAt,value
2019-03-13T00:01:10.062Z,99260
2019-03-13T00:06:33.330Z,99267
2019-03-13T00:11:56.115Z,99265
2019-03-13T00:17:18.762Z,99267
2019-03-13T00:22:42.181Z,99269
2019-03-13T00:28:04.807Z,99263
2019-03-13T00:33:27.706Z,99266
2019-03-13T00:38:50.374Z,99269
2019-03-13T00:44:13.227Z,99270
2019-03-13T00:49:36.296Z,99271
2019-03-13T00:54:58.937Z,99275
2019-03-13T01:00:21.719Z,99282
2019-03-13T01:05:44.484Z,99291
2019-03-13T01:11:07.246Z,99291
2019-03-13T01:16:29.969Z,99278
2019-03-13T01:21:52.999Z,99286
2019-03-13T01:27:15.586Z,99276
2019-03-13T01:32:38.253Z,99269
2019-03-13T01:38:00.984Z,99271
2019-03-13T01:43:23.592Z,99269
2019-03-13T01:48:46.434Z,99279
2019-03-13T01:54:10.126Z,99273
2019-03-13T01:59:33.705Z,99286
2019-03-13T02:04:56.425Z,99275
2019-03-13T02:10:23.530Z,99261
2019-03-13T02:15:46.191Z,99260
2019-03-13T02:21:09.830Z,99251
2019-03-13T02:26:33.260Z,99257
2019-03-13T02:31:56.092Z,99242
2019-03-13T02:37:18.729Z,99241
2019-03-13T02:42:41.434Z,99251
2019-03-13T02:48:04.700Z,99253
2019-03-13T02:53:28.278Z,99231
2019-03-13T02:58:50.994Z,99233
2019-03-13T03:04:13.785Z,99229
2019-03-13T03:09:36.476Z,99240
2019-03-13T03:14:59.701Z,99227
2019-03-13T03:20:24.231Z,99235
2019-03-13T03:25:46.881Z,99245
2019-03-13T03:31:09.486Z,99229
2019-03-13T03:36:32.786Z,99232
2019-03-13T03:41:55.811Z,99219
2019-03-13T03:47:18.621Z,99231
2019-03-13T03:52:41.274Z,99220
2019-03-13T03:58:03.960Z,99235
2019-03-13T04:03:26.659Z,99238
2019-03-13T04:08:49.608Z,99222
2019-03-13T04:14:12.304Z,99221
2019-03-13T04:19:34.949Z,99224
2019-03-13T04:24:57.771Z,99221
2019-03-13T04:30:20.379Z,99224
2019-03-13T04:35:42.990Z,99226
2019-03-13T04:41:05.693Z,99214
2019-03-13T04:46:28.694Z,99221
2019-03-13T04:51:51.284Z,99219
2019-03-13T04:57:13.910Z,99205
2019-03-13T05:02:36.609Z,99220
2019-03-13T05:07:59.450Z,99221
2019-03-13T05:13:22.186Z,99201
2019-03-13T05:18:44.915Z,99193
2019-03-13T05:24:07.507Z,99201
2019-03-13T05:29:30.176Z,99192
2019-03-13T05:34:52.839Z,99196
2019-03-13T05:40:15.587Z,99195
2019-03-13T05:45:38.231Z,99190
2019-03-13T05:51:00.975Z,99197
2019-03-13T05:56:23.711Z,99184
2019-03-13T06:01:46.482Z,99190
2019-03-13T06:07:09.187Z,99192
2019-03-13T06:12:31.931Z,99178
2019-03-13T06:17:54.780Z,99178
2019-03-13T06:23:17.554Z,99181
2019-03-13T06:28:43.640Z,99166
2019-03-13T06:34:06.269Z,99176
2019-03-13T06:39:31.978Z,99174
2019-03-13T06:44:54.813Z,99162
2019-03-13T06:50:17.512Z,99179
2019-03-13T06:55:40.237Z,99168
2019-03-13T07:01:02.863Z,99177
2019-03-13T07:06:25.520Z,99171
2019-03-13T07:11:48.136Z,99171
2019-03-13T07:17:10.807Z,99157
2019-03-13T07:22:33.545Z,99166
2019-03-13T07:27:58.207Z,99163
2019-03-13T07:33:21.797Z,99148
2019-03-13T07:38:44.383Z,99146
2019-03-13T07:44:07.677Z,99140
2019-03-13T07:49:30.518Z,99144
2019-03-13T07:54:53.279Z,99147
2019-03-13T08:00:18.872Z,99126
2019-03-13T08:05:41.568Z,99099
2019-03-13T08:11:04.472Z,99108
2019-03-13T08:16:28.061Z,99109
2019-03-13T08:21:50.924Z,99102
2019-03-13T08:27:13.674Z,99091
2019-03-13T08:32:37.465Z,99081
2019-03-13T08:38:00.076Z,99085
2019-03-13T08:43:22.843Z,99094
2019-03-13T08:48:45.462Z,99101
2019-03-13T08:54:08.063Z,99101
2019-03-13T08:59:30.747Z,99098
2019-03-13T09:04:53.552Z,99094
2019-03-13T09:10:16.241Z,99088
2019-03-13T09:15:39.939Z,99092
2019-03-13T09:21:03.085Z,99073
2019-03-13T09:26:27.022Z,99079
2019-03-13T09:31:49.716Z,99091
2019-03-13T09:37:12.475Z,99086
2019-03-13T09:42:35.680Z,99089
2019-03-13T09:47:58.349Z,99082
2019-03-13T09:53:21.039Z,99091
2019-03-13T09:58:44.710Z,99078
2019-03-13T10:04:07.625Z,99059
2019-03-13T10:09:30.285Z,99087
2019-03-13T10:14:52.962Z,99083
2019-03-13T10:20:15.615Z,99096
2019-03-13T10:25:38.398Z,99087
2019-03-13T10:31:01.371Z,99080
2019-03-13T10:36:34.998Z,99091
2019-03-13T10:41:58.825Z,99080
2019-03-13T10:47:20.979Z,99076
2019-03-13T10:52:44.631Z,99064
2019-03-13T10:58:07.388Z,99063
2019-03-13T11:03:32.303Z,99041
2019-03-13T11:08:55.653Z,99058
2019-03-13T11:14:18.537Z,99064
2019-03-13T11:19:41.287Z,99052
2019-03-13T11:25:04.145Z,99055
2019-03-13T11:30:27.709Z,99062
2019-03-13T11:35:50.505Z,99052
2019-03-13T11:41:13.254Z,99045
2019-03-13T11:46:35.969Z,99050
2019-03-13T11:51:58.665Z,99034
2019-03-13T11:57:22.643Z,99022
2019-03-13T12:02:45.462Z,99023
2019-03-13T12:08:09.272Z,99038
2019-03-13T12:13:32.091Z,99013
2019-03-13T12:18:55.455Z,99023
2019-03-13T12:24:19.315Z,99003
2019-03-13T12:29:42.716Z,99032
2019-03-13T12:35:05.511Z,99008
2019-03-13T12:40:28.230Z,98998
2019-03-13T12:45:50.949Z,99004
2019-03-13T12:51:13.726Z,98993
2019-03-13T12:56:36.504Z,98986
2019-03-13T13:02:00.172Z,98982
2019-03-13T13:07:23.027Z,98994
2019-03-13T13:12:45.867Z,98988
2019-03-13T13:18:08.586Z,98977
2019-03-13T13:23:31.190Z,98990
2019-03-13T13:28:53.844Z,98982
2019-03-13T13:34:16.772Z,98969
2019-03-13T13:39:40.127Z,98992
2019-03-13T13:45:12.920Z,99013
2019-03-13T13:51:10.317Z,98988
2019-03-13T13:56:42.836Z,99039
2019-03-13T14:02:17.001Z,99020
2019-03-13T14:07:50.069Z,99008
2019-03-13T14:13:24.127Z,99003
2019-03-13T14:18:58.350Z,99001
2019-03-13T14:24:33.661Z,98981
2019-03-13T14:30:06.795Z,99007
2019-03-13T14:35:38.673Z,99000
2019-03-13T14:41:31.749Z,99002
2019-03-13T14:47:06.273Z,98978
2019-03-13T14:52:39.359Z,98994
2019-03-13T14:58:11.452Z,98978
2019-03-13T15:03:46.989Z,98976
2019-03-13T15:09:20.076Z,98980
2019-03-13T15:14:53.242Z,98992
2019-03-13T15:20:25.576Z,98982
2019-03-13T15:25:59.748Z,98973
2019-03-13T15:31:32.991Z,98996
2019-03-13T15:37:08.327Z,98999
2019-03-13T15:42:42.233Z,99002
2019-03-13T15:48:05.204Z,98999
2019-03-13T15:53:28.967Z,99009
2019-03-13T15:59:01.932Z,99008
2019-03-13T16:04:36.078Z,99004
2019-03-13T16:10:08.256Z,99009
2019-03-13T16:15:39.724Z,99002
2019-03-13T16:21:03.397Z,99008
2019-03-13T16:26:26.065Z,99014
2019-03-13T16:31:48.798Z,99014
2019-03-13T16:37:11.665Z,99011
2019-03-13T16:42:34.354Z,99015
2019-03-13T16:47:57.171Z,99012
2019-03-13T16:53:19.918Z,99020
2019-03-13T16:58:42.658Z,99016
2019-03-13T17:04:07.427Z,99027
2019-03-13T17:09:30.264Z,99036
2019-03-13T17:14:53.163Z,99032
2019-03-13T17:20:15.861Z,99051
2019-03-13T17:25:38.653Z,99054
2019-03-13T17:31:01.893Z,99059
2019-03-13T17:36:24.592Z,99070
2019-03-13T17:41:47.941Z,99088
2019-03-13T17:47:10.633Z,99086
2019-03-13T17:52:33.499Z,99097
2019-03-13T17:57:56.425Z,99106
2019-03-13T18:03:19.216Z,99115
2019-03-13T18:08:42.012Z,99132
2019-03-13T18:14:04.915Z,99127
2019-03-13T18:19:37.173Z,99138
2019-03-13T18:24:59.055Z,99149
2019-03-13T18:30:32.123Z,99149
2019-03-13T18:35:55.695Z,99159
2019-03-13T18:41:18.686Z,99168
2019-03-13T18:46:42.358Z,99181
2019-03-13T18:52:05.511Z,99200
2019-03-13T18:57:39.029Z,99205
2019-03-13T19:03:02.335Z,99209
2019-03-13T19:08:26.978Z,99223
2019-03-13T19:14:00.114Z,99230
2019-03-13T19:19:23.407Z,99241
2019-03-13T19:24:47.488Z,99248
2019-03-13T19:30:11.030Z,99251
2019-03-13T19:35:44.210Z,99271
2019-03-13T19:41:08.840Z,99272
2019-03-13T19:46:32.078Z,99278
2019-03-13T19:51:54.177Z,99288
2019-03-13T19:57:18.617Z,99285
2019-03-13T20:02:43.993Z,99306
2019-03-13T20:08:08.782Z,99330
2019-03-13T20:13:32.739Z,99333
2019-03-13T20:18:55.771Z,99334
2019-03-13T20:24:19.356Z,99333
2019-03-13T20:29:42.346Z,99353
2019-03-13T20:35:06.172Z,99363
2019-03-13T20:40:30.055Z,99374
2019-03-13T20:45:54.708Z,99384
2019-03-13T20:51:18.698Z,99374
2019-03-13T20:56:42.827Z,99393
2019-03-13T21:02:05.585Z,99394
2019-03-13T21:07:29.483Z,99407
2019-03-13T21:12:52.695Z,99403
2019-03-13T21:18:16.145Z,99405
2019-03-13T21:23:40.350Z,99398
2019-03-13T21:29:03.289Z,99411
2019-03-13T21:34:28.383Z,99419
2019-03-13T21:39:49.511Z,99435
2019-03-13T21:45:22.015Z,99439
2019-03-13T21:50:37.398Z,99454
2019-03-13T21:56:01.053Z,99457
2019-03-13T22:01:24.003Z,99466
2019-03-13T22:06:47.088Z,99483
2019-03-13T22:12:10.337Z,99491
2019-03-13T22:17:33.425Z,99505
2019-03-13T22:22:56.404Z,99514
2019-03-13T22:28:19.277Z,99520
2019-03-13T22:33:42.061Z,99527
2019-03-13T22:39:04.861Z,99536
2019-03-13T22:44:27.606Z,99548
2019-03-13T22:49:51.174Z,99562
2019-03-13T22:55:13.807Z,99557
2019-03-13T23:00:36.521Z,99568
2019-03-13T23:05:59.133Z,99575
2019-03-13T23:11:22.455Z,99582
2019-03-13T23:16:45.989Z,99585
2019-03-13T23:22:09.788Z,99603
2019-03-13T23:27:33.038Z,99610
2019-03-13T23:32:56.680Z,99624
2019-03-13T23:38:19.276Z,99630
2019-03-13T23:43:41.991Z,99641
2019-03-13T23:49:04.669Z,99649
2019-03-13T23:54:27.997Z,99656
2019-03-13T23:59:50.590Z,99666
